Time;durP1;ratioP1;P1;durP2;ratioP2;P2;SDS_P1;SDS_P2;PMS_P1;PMS_P2;Temp;Humidity;BMP_temperature;BMP_pressure;BME280_temperature;BME280_humidity;BME280_pressure;Samples;Min_cycle;Max_cycle;Signal;HPM_P1;HPM_P2
2022/01/13 00:00:00;;;;;;;17.08;6.88;;;;;11.00;103926.00;;;;5025895;28;20200;-78
2022/01/13 00:02:32;;;;;;;15.20;6.20;;;;;11.00;103922.00;;;;5022381;28;20199;-78
2022/01/13 00:04:59;;;;;;;14.52;6.60;;;;;11.00;103905.00;;;;5029589;28;20234;-78
2022/01/13 00:07:27;;;;;;;16.67;7.60;;;;;11.00;103905.00;;;;5015594;28;20251;-77
2022/01/13 00:09:55;;;;;;;13.93;6.55;;;;;11.00;103912.00;;;;5009375;28;20227;-78
2022/01/13 00:12:26;;;;;;;14.23;6.43;;;;;11.00;103910.00;;;;5009502;28;20197;-79
2022/01/13 00:15:09;;;;;;;14.95;6.63;;;;;11.00;103921.00;;;;5023618;28;20188;-78
2022/01/13 00:17:59;;;;;;;16.25;7.10;;;;;11.00;103928.00;;;;5027328;28;20569;-78
2022/01/13 00:26:02;;;;;;;10.40;5.00;;;;;11.00;103930.00;;;;5024915;28;20227;-79
2022/01/13 00:28:29;;;;;;;12.20;5.68;;;;;10.90;103927.00;;;;5022478;28;20243;-78
2022/01/13 00:30:58;;;;;;;14.60;5.70;;;;;10.90;103917.00;;;;5022489;28;20254;-79
2022/01/13 00:33:26;;;;;;;10.65;4.97;;;;;10.90;103931.00;;;;5025307;28;20208;-79
2022/01/13 00:35:56;;;;;;;11.80;4.85;;;;;10.90;103921.00;;;;5027010;28;20276;-79
2022/01/13 00:38:23;;;;;;;12.35;5.60;;;;;10.90;103911.00;;;;5008856;28;20193;-78
2022/01/13 00:40:51;;;;;;;11.50;5.13;;;;;10.90;103913.00;;;;5019203;28;20223;-79
2022/01/13 00:43:20;;;;;;;13.15;5.13;;;;;10.80;103923.00;;;;5019325;28;20226;-78
2022/01/13 00:45:49;;;;;;;13.93;5.32;;;;;10.80;103924.00;;;;5027824;28;20632;-78
2022/01/13 00:48:17;;;;;;;13.00;5.80;;;;;10.80;103915.00;;;;5017980;28;20203;-78
2022/01/13 00:50:44;;;;;;;13.00;5.50;;;;;10.80;103930.00;;;;5008355;28;20208;-78
2022/01/13 00:53:11;;;;;;;11.02;5.35;;;;;10.80;103923.00;;;;5008947;28;20284;-79
2022/01/13 00:55:48;;;;;;;9.60;4.53;;;;;10.80;103923.00;;;;5015010;28;20250;-78
2022/01/13 00:58:16;;;;;;;9.55;4.35;;;;;10.80;103923.00;;;;5019024;28;20200;-78
2022/01/13 01:00:45;;;;;;;10.23;4.88;;;;;10.80;103924.00;;;;5019956;28;20228;-79
2022/01/13 01:03:13;;;;;;;10.82;5.05;;;;;10.80;103912.00;;;;5025618;28;20196;-79
2022/01/13 01:05:40;;;;;;;9.63;4.22;;;;;10.80;103923.00;;;;5027200;28;20200;-78
2022/01/13 01:08:09;;;;;;;10.20;5.15;;;;;10.80;103922.00;;;;5018329;28;20262;-79
2022/01/13 01:10:36;;;;;;;10.68;4.28;;;;;10.80;103926.00;;;;5008608;28;20220;-78
2022/01/13 01:13:12;;;;;;;8.88;4.53;;;;;10.70;103916.00;;;;5007644;28;20215;-78
2022/01/13 01:15:42;;;;;;;12.38;4.80;;;;;10.70;103915.00;;;;5023223;28;20696;-77
2022/01/13 01:18:24;;;;;;;8.95;4.35;;;;;10.70;103914.00;;;;5019870;28;20287;-78
2022/01/13 01:21:04;;;;;;;8.82;4.80;;;;;10.70;103911.00;;;;5008299;28;20236;-78
2022/01/13 01:23:35;;;;;;;12.25;5.43;;;;;10.70;103912.00;;;;5026085;28;20287;-78
2022/01/13 01:26:07;;;;;;;9.00;4.22;;;;;10.70;103909.00;;;;5022487;28;20189;-79
2022/01/13 01:28:43;;;;;;;10.27;4.47;;;;;10.70;103907.00;;;;5014494;28;20247;-78
2022/01/13 01:31:12;;;;;;;9.93;5.00;;;;;10.70;103905.00;;;;5008942;28;20207;-78
2022/01/13 01:33:49;;;;;;;11.05;5.35;;;;;10.70;103916.00;;;;5026187;28;20218;-78
2022/01/13 01:36:18;;;;;;;10.00;4.80;;;;;10.70;103923.00;;;;5024152;28;20197;-78
2022/01/13 01:38:48;;;;;;;9.57;4.18;;;;;10.70;103916.00;;;;5013371;28;20196;-78
2022/01/13 01:41:17;;;;;;;14.60;5.53;;;;;10.70;103912.00;;;;5020764;28;20227;-78
2022/01/13 01:43:45;;;;;;;7.82;4.10;;;;;10.70;103911.00;;;;5009174;28;20201;-78
2022/01/13 01:46:12;;;;;;;12.38;5.40;;;;;10.70;103914.00;;;;5009031;28;20219;-78
2022/01/13 01:48:41;;;;;;;12.90;5.03;;;;;10.70;103907.00;;;;5020381;28;20203;-78
2022/01/13 01:51:08;;;;;;;12.05;5.70;;;;;10.70;103911.00;;;;5026882;28;20208;-78
2022/01/13 01:53:35;;;;;;;11.25;5.18;;;;;10.70;103904.00;;;;5017413;28;20201;-78
2022/01/13 01:56:03;;;;;;;12.20;5.70;;;;;10.70;103911.00;;;;5020237;28;20186;-78
2022/01/13 01:58:30;;;;;;;9.82;5.60;;;;;10.70;103916.00;;;;5016941;28;20227;-78
2022/01/13 02:00:58;;;;;;;10.68;5.10;;;;;10.70;103908.00;;;;5026105;28;20235;-78
2022/01/13 02:03:26;;;;;;;11.90;5.55;;;;;10.70;103906.00;;;;5025559;28;20197;-78
2022/01/13 02:05:56;;;;;;;10.43;4.90;;;;;10.70;103900.00;;;;5018964;28;20197;-78
2022/01/13 02:08:23;;;;;;;14.45;5.88;;;;;10.70;103915.00;;;;5026777;28;20192;-78
2022/01/13 02:10:55;;;;;;;9.52;5.07;;;;;10.70;103921.00;;;;5014287;28;20213;-76
2022/01/13 02:13:24;;;;;;;8.50;4.38;;;;;10.70;103927.00;;;;5027419;28;20192;-79
2022/01/13 02:16:02;;;;;;;9.05;4.22;;;;;10.70;103927.00;;;;5026052;28;20208;-78
2022/01/13 02:18:31;;;;;;;9.95;4.82;;;;;10.70;103923.00;;;;5019998;28;20663;-78
2022/01/13 02:21:01;;;;;;;9.35;4.30;;;;;10.70;103929.00;;;;5023794;28;20244;-78
2022/01/13 02:23:30;;;;;;;11.52;5.07;;;;;10.70;103933.00;;;;5030211;28;20200;-78
2022/01/13 02:25:58;;;;;;;9.98;4.43;;;;;10.70;103924.00;;;;5031478;28;20200;-78
2022/01/13 02:28:26;;;;;;;10.10;4.35;;;;;10.70;103915.00;;;;5031685;28;20200;-78
2022/01/13 02:30:53;;;;;;;9.60;4.88;;;;;10.70;103921.00;;;;5018318;28;20252;-78
2022/01/13 02:33:20;;;;;;;11.65;5.13;;;;;10.70;103903.00;;;;5016414;28;20193;-79
2022/01/13 02:35:48;;;;;;;11.10;5.28;;;;;10.70;103907.00;;;;5030298;28;20200;-78
2022/01/13 02:38:16;;;;;;;12.85;5.82;;;;;10.70;103902.00;;;;5010820;28;20211;-79
2022/01/13 02:40:44;;;;;;;13.23;4.35;;;;;10.70;103893.00;;;;5022475;28;20200;-78
2022/01/13 02:43:11;;;;;;;7.93;4.22;;;;;10.60;103892.00;;;;5016056;28;20390;-78
2022/01/13 02:45:51;;;;;;;11.15;4.95;;;;;10.70;103892.00;;;;5012282;28;20213;-78
2022/01/13 02:48:30;;;;;;;12.15;5.68;;;;;10.60;103891.00;;;;5013152;28;20188;-78
2022/01/13 02:50:58;;;;;;;8.18;4.03;;;;;10.60;103884.00;;;;5014564;28;21113;-78
2022/01/13 02:53:27;;;;;;;13.88;5.32;;;;;10.60;103867.00;;;;5030850;28;20199;-78
2022/01/13 02:56:00;;;;;;;13.10;5.88;;;;;10.60;103866.00;;;;5026539;28;20192;-79
2022/01/13 02:58:28;;;;;;;10.25;4.82;;;;;10.60;103872.00;;;;5010986;28;20705;-78
2022/01/13 03:00:55;;;;;;;9.02;4.28;;;;;10.60;103867.00;;;;5020651;28;20620;-78
2022/01/13 03:03:22;;;;;;;9.43;4.20;;;;;10.60;103871.00;;;;5029013;28;20199;-79
2022/01/13 03:05:49;;;;;;;11.68;5.15;;;;;10.60;103865.00;;;;5030873;28;20558;-78
2022/01/13 03:08:17;;;;;;;8.93;4.07;;;;;10.60;103873.00;;;;5023757;28;20211;-79
2022/01/13 03:10:45;;;;;;;10.68;4.25;;;;;10.50;103866.00;;;;5027744;28;20944;-78
2022/01/13 03:13:13;;;;;;;11.98;5.25;;;;;10.50;103869.00;;;;5019596;28;20204;-78
2022/01/13 03:15:40;;;;;;;13.32;5.00;;;;;10.60;103874.00;;;;5010617;28;20675;-78
2022/01/13 03:18:07;;;;;;;10.27;5.53;;;;;10.60;103872.00;;;;5022957;28;20845;-78
2022/01/13 03:20:34;;;;;;;9.70;4.90;;;;;10.60;103868.00;;;;5011954;28;20224;-78
2022/01/13 03:23:04;;;;;;;12.10;6.30;;;;;10.60;103865.00;;;;5020458;28;20220;-78
2022/01/13 03:25:32;;;;;;;9.18;5.05;;;;;10.60;103868.00;;;;5030003;28;20688;-78
2022/01/13 03:28:07;;;;;;;10.73;5.03;;;;;10.50;103861.00;;;;5019785;28;20193;-78
2022/01/13 03:30:34;;;;;;;12.23;6.28;;;;;10.60;103862.00;;;;5013243;28;20210;-78
2022/01/13 03:33:02;;;;;;;10.00;4.63;;;;;10.60;103864.00;;;;5017912;28;20196;-79
2022/01/13 03:35:29;;;;;;;12.70;6.22;;;;;10.60;103860.00;;;;5016137;28;20299;-79
2022/01/13 03:37:58;;;;;;;10.57;5.40;;;;;10.60;103855.00;;;;5014101;28;20209;-79
2022/01/13 03:40:26;;;;;;;13.55;5.93;;;;;10.60;103864.00;;;;5020719;28;20204;-78
2022/01/13 03:42:53;;;;;;;11.63;5.88;;;;;10.60;103855.00;;;;5017143;28;20230;-78
2022/01/13 03:45:22;;;;;;;14.40;6.47;;;;;10.60;103849.00;;;;5028790;28;20196;-78
2022/01/13 03:47:49;;;;;;;16.27;5.15;;;;;10.60;103851.00;;;;5025758;28;20204;-79
2022/01/13 03:50:17;;;;;;;14.55;6.40;;;;;10.60;103852.00;;;;5025155;28;20207;-78
2022/01/13 03:53:21;;;;;;;16.10;6.88;;;;;10.50;103852.00;;;;5020823;28;20277;-78
2022/01/13 03:56:40;;;;;;;11.38;6.05;;;;;10.50;103848.00;;;;5028150;28;20700;-78
2022/01/13 03:59:53;;;;;;;12.00;5.65;;;;;10.50;103854.00;;;;4973823;28;20213;-79
2022/01/13 04:02:22;;;;;;;13.45;5.13;;;;;10.60;103854.00;;;;4893901;28;20225;-78
2022/01/13 04:04:51;;;;;;;11.10;5.50;;;;;10.60;103854.00;;;;5007323;28;20215;-78
2022/01/13 04:07:19;;;;;;;12.77;5.88;;;;;10.60;103854.00;;;;5025779;28;20200;-78
2022/01/13 04:10:20;;;;;;;11.18;5.38;;;;;10.50;103859.00;;;;5029093;28;20207;-78
2022/01/13 04:12:47;;;;;;;12.52;5.97;;;;;10.60;103854.00;;;;5021289;28;20682;-78
2022/01/13 04:15:17;;;;;;;12.18;5.07;;;;;10.60;103855.00;;;;5024726;28;20204;-78
2022/01/13 04:17:46;;;;;;;11.02;4.75;;;;;10.60;103861.00;;;;5025873;28;20549;-78
2022/01/13 04:20:14;;;;;;;12.60;5.80;;;;;10.60;103872.00;;;;5010804;28;20221;-78
2022/01/13 04:22:41;;;;;;;18.58;6.88;;;;;10.60;103865.00;;;;5011556;28;20225;-78
2022/01/13 04:25:09;;;;;;;11.73;5.32;;;;;10.60;103865.00;;;;5008199;28;20224;-78
2022/01/13 04:27:42;;;;;;;14.43;5.82;;;;;10.60;103868.00;;;;5022964;28;20200;-79
2022/01/13 04:32:59;;;;;;;11.45;5.68;;;;;10.60;103858.00;;;;4984047;28;20397;-78
2022/01/13 04:35:27;;;;;;;13.02;5.82;;;;;10.60;103854.00;;;;5026358;28;20689;-78
2022/01/13 04:37:54;;;;;;;14.60;6.90;;;;;10.70;103860.00;;;;5024946;28;20201;-78
2022/01/13 04:40:21;;;;;;;11.80;6.00;;;;;10.70;103857.00;;;;5028012;28;20188;-78
2022/01/13 04:42:53;;;;;;;11.82;5.80;;;;;10.70;103854.00;;;;5025554;28;20223;-78
2022/01/13 04:45:21;;;;;;;14.15;5.82;;;;;10.70;103855.00;;;;5012518;28;20899;-78
2022/01/13 04:47:50;;;;;;;13.05;6.20;;;;;10.70;103860.00;;;;5026854;28;20239;-78
2022/01/13 04:50:18;;;;;;;11.18;5.90;;;;;10.70;103866.00;;;;5019219;28;20201;-78
2022/01/13 04:52:46;;;;;;;14.75;5.75;;;;;10.70;103853.00;;;;5013946;28;20578;-78
2022/01/13 04:55:21;;;;;;;11.52;6.25;;;;;10.70;103854.00;;;;5020950;28;20205;-78
2022/01/13 04:57:48;;;;;;;13.45;6.75;;;;;10.70;103855.00;;;;5023663;28;20231;-78
2022/01/13 05:00:16;;;;;;;11.82;6.22;;;;;10.70;103860.00;;;;5023610;28;20232;-78
2022/01/13 05:02:43;;;;;;;10.63;6.28;;;;;10.70;103862.00;;;;5024051;28;20247;-78
2022/01/13 05:05:11;;;;;;;11.50;6.15;;;;;10.70;103855.00;;;;5012594;28;20196;-78
2022/01/13 05:07:40;;;;;;;18.25;6.45;;;;;10.80;103857.00;;;;5027911;28;20193;-79
2022/01/13 05:10:08;;;;;;;13.45;6.65;;;;;10.80;103862.00;;;;5027119;28;20216;-79
2022/01/13 05:12:40;;;;;;;12.02;6.00;;;;;10.80;103858.00;;;;5023049;28;20196;-78
2022/01/13 05:15:10;;;;;;;11.45;6.65;;;;;10.80;103851.00;;;;5023432;28;20215;-78
2022/01/13 05:20:41;;;;;;;13.70;5.50;;;;;10.80;103864.00;;;;5023047;28;20239;-78
2022/01/13 05:23:12;;;;;;;10.57;5.65;;;;;10.70;103858.00;;;;5021807;28;20282;-79
2022/01/13 05:25:41;;;;;;;17.52;6.47;;;;;10.80;103858.00;;;;5019805;28;20200;-79
2022/01/13 05:28:08;;;;;;;16.90;6.30;;;;;10.80;103866.00;;;;5027604;28;20200;-78
2022/01/13 05:30:36;;;;;;;10.95;6.13;;;;;10.80;103864.00;;;;5014931;28;20541;-79
2022/01/13 05:33:04;;;;;;;11.60;6.45;;;;;10.80;103870.00;;;;5024488;28;20192;-79
2022/01/13 05:35:31;;;;;;;12.52;6.30;;;;;10.80;103865.00;;;;5021798;28;20223;-79
2022/01/13 05:37:58;;;;;;;13.23;6.55;;;;;10.80;103861.00;;;;5022589;28;20203;-79
2022/01/13 05:40:28;;;;;;;15.32;6.05;;;;;10.80;103866.00;;;;5028771;28;20196;-79
2022/01/13 05:42:56;;;;;;;11.50;5.65;;;;;10.80;103860.00;;;;5024376;28;20231;-79
2022/01/13 05:45:29;;;;;;;13.30;6.13;;;;;10.80;103851.00;;;;5027419;28;20196;-78
2022/01/13 05:47:57;;;;;;;11.32;6.22;;;;;10.80;103850.00;;;;5026462;28;20275;-78
2022/01/13 05:50:25;;;;;;;10.23;5.63;;;;;10.80;103852.00;;;;5031414;28;20662;-79
2022/01/13 05:52:54;;;;;;;11.27;5.80;;;;;10.80;103851.00;;;;5019572;28;20209;-79
2022/01/13 05:55:22;;;;;;;11.82;6.28;;;;;10.80;103851.00;;;;5008663;28;20209;-79
2022/01/13 05:57:51;;;;;;;10.73;5.47;;;;;10.80;103848.00;;;;5018488;28;20192;-78
2022/01/13 06:00:20;;;;;;;10.40;5.13;;;;;10.80;103850.00;;;;5030958;28;20576;-79
2022/01/13 06:02:48;;;;;;;8.60;4.85;;;;;10.80;103859.00;;;;5030400;28;20228;-79
2022/01/13 06:05:16;;;;;;;11.77;6.07;;;;;10.80;103849.00;;;;5012273;28;20209;-79
2022/01/13 06:07:43;;;;;;;13.10;6.28;;;;;10.80;103853.00;;;;5012798;28;20617;-79
2022/01/13 06:10:18;;;;;;;13.43;4.88;;;;;10.80;103859.00;;;;5026522;28;20224;-79
2022/01/13 06:12:46;;;;;;;10.27;4.97;;;;;10.80;103856.00;;;;5013002;28;20954;-79
2022/01/13 06:15:18;;;;;;;11.23;4.90;;;;;10.80;103855.00;;;;5021315;28;20200;-79
2022/01/13 06:17:46;;;;;;;8.00;4.78;;;;;10.80;103865.00;;;;5029565;28;20188;-79
2022/01/13 06:20:14;;;;;;;10.52;5.35;;;;;10.80;103870.00;;;;5020163;28;20770;-79
2022/01/13 06:22:43;;;;;;;10.05;5.22;;;;;10.80;103866.00;;;;5011748;28;20232;-79
2022/01/13 06:25:13;;;;;;;10.43;5.03;;;;;10.80;103868.00;;;;5018481;28;22934;-79
2022/01/13 06:27:40;;;;;;;13.27;6.15;;;;;10.80;103873.00;;;;5024304;28;20205;-80
2022/01/13 06:30:11;;;;;;;10.00;4.78;;;;;10.80;103862.00;;;;5011010;28;20201;-79
2022/01/13 06:32:39;;;;;;;8.48;4.75;;;;;10.80;103866.00;;;;5028292;28;20215;-79
2022/01/13 06:35:07;;;;;;;10.73;5.28;;;;;10.80;103865.00;;;;5030045;28;20203;-78
2022/01/13 06:37:35;;;;;;;8.00;4.03;;;;;10.80;103870.00;;;;5024235;28;20240;-79
2022/01/13 06:40:04;;;;;;;9.32;4.07;;;;;10.80;103870.00;;;;5021496;28;20196;-78
2022/01/13 06:42:31;;;;;;;7.50;4.15;;;;;10.80;103865.00;;;;5022808;28;20224;-79
2022/01/13 06:44:58;;;;;;;9.43;4.78;;;;;10.80;103863.00;;;;5017538;28;20656;-78
2022/01/13 06:47:26;;;;;;;13.50;5.00;;;;;10.80;103862.00;;;;5017983;28;20205;-79
2022/01/13 06:49:54;;;;;;;10.30;5.47;;;;;10.80;103857.00;;;;5030022;28;21133;-79
2022/01/13 06:52:22;;;;;;;13.65;5.25;;;;;10.80;103851.00;;;;5027356;28;20201;-79
2022/01/13 06:54:51;;;;;;;9.18;4.47;;;;;10.80;103856.00;;;;5018275;28;20207;-79
2022/01/13 06:57:19;;;;;;;11.23;5.00;;;;;10.80;103861.00;;;;5026926;28;20208;-80
2022/01/13 06:59:46;;;;;;;11.52;4.53;;;;;10.80;103852.00;;;;5014997;28;20227;-80
2022/01/13 07:02:14;;;;;;;10.57;4.47;;;;;10.80;103849.00;;;;5029609;28;20244;-78
2022/01/13 07:04:42;;;;;;;8.98;4.78;;;;;10.80;103860.00;;;;5029935;28;20195;-80
2022/01/13 07:07:11;;;;;;;5.65;3.17;;;;;10.80;103854.00;;;;5029584;28;20204;-80
2022/01/13 07:09:38;;;;;;;8.65;4.93;;;;;10.80;103853.00;;;;5028106;28;20197;-81
2022/01/13 07:12:08;;;;;;;8.98;4.82;;;;;10.80;103857.00;;;;5011219;28;20197;-79
2022/01/13 07:14:35;;;;;;;9.25;4.68;;;;;10.80;103869.00;;;;5010432;28;20620;-79
2022/01/13 07:17:04;;;;;;;9.32;5.28;;;;;10.80;103850.00;;;;5009585;28;20361;-79
2022/01/13 07:19:31;;;;;;;7.07;4.30;;;;;10.80;103872.00;;;;5010054;28;20699;-79
2022/01/13 07:21:59;;;;;;;9.38;4.38;;;;;10.80;103865.00;;;;5010268;28;20219;-80
2022/01/13 07:24:27;;;;;;;7.22;4.25;;;;;10.80;103867.00;;;;5018868;28;20232;-80
2022/01/13 07:26:54;;;;;;;9.95;5.25;;;;;10.80;103869.00;;;;5029883;28;20220;-79
2022/01/13 07:29:22;;;;;;;8.82;4.10;;;;;10.80;103870.00;;;;5029945;28;20204;-79
2022/01/13 07:31:49;;;;;;;13.48;4.97;;;;;10.80;103875.00;;;;5030338;28;20211;-79
2022/01/13 07:34:17;;;;;;;7.90;4.40;;;;;10.80;103867.00;;;;5030249;28;20222;-80
2022/01/13 07:36:44;;;;;;;8.80;4.53;;;;;10.80;103868.00;;;;5030297;28;20210;-80
2022/01/13 07:39:11;;;;;;;6.72;3.45;;;;;10.80;103871.00;;;;5021500;28;20200;-80
2022/01/13 07:41:42;;;;;;;8.30;4.65;;;;;10.80;103872.00;;;;5012476;28;20220;-79
2022/01/13 07:44:10;;;;;;;8.30;4.25;;;;;10.80;103876.00;;;;5029972;28;20232;-80
2022/01/13 07:46:37;;;;;;;9.05;4.60;;;;;10.80;103866.00;;;;5014757;28;20201;-79
2022/01/13 07:49:05;;;;;;;9.18;4.82;;;;;10.80;103867.00;;;;5010420;28;20205;-80
2022/01/13 07:51:32;;;;;;;7.32;3.95;;;;;10.80;103878.00;;;;5010839;28;20214;-80
2022/01/13 07:53:59;;;;;;;8.52;4.40;;;;;10.80;103873.00;;;;5010261;28;20197;-80
2022/01/13 07:56:28;;;;;;;12.55;4.20;;;;;10.80;103878.00;;;;5019815;28;20207;-80
2022/01/13 07:58:57;;;;;;;9.55;4.45;;;;;10.80;103874.00;;;;5023685;28;20200;-80
2022/01/13 08:01:24;;;;;;;7.35;3.95;;;;;10.80;103870.00;;;;5023914;28;20204;-80
2022/01/13 08:03:52;;;;;;;10.85;4.45;;;;;10.80;103861.00;;;;5015595;28;20247;-81
2022/01/13 08:06:19;;;;;;;8.07;4.40;;;;;10.80;103873.00;;;;5019104;28;20209;-81
2022/01/13 08:08:46;;;;;;;7.40;3.97;;;;;10.80;103876.00;;;;5023139;28;20208;-81
2022/01/13 08:11:14;;;;;;;8.18;4.72;;;;;10.80;103882.00;;;;5009662;28;20248;-81
2022/01/13 08:13:41;;;;;;;9.88;4.40;;;;;10.80;103883.00;;;;5009634;28;20212;-81
2022/01/13 08:16:10;;;;;;;8.38;4.57;;;;;10.80;103874.00;;;;5018052;28;20216;-81
2022/01/13 08:21:25;;;;;;;8.57;4.43;;;;;10.80;103865.00;;;;5009153;28;20204;-80
2022/01/13 08:23:52;;;;;;;8.18;4.32;;;;;10.70;103873.00;;;;5008736;28;20228;-80
2022/01/13 08:26:20;;;;;;;7.68;4.50;;;;;10.80;103871.00;;;;5014381;28;20627;-80
2022/01/13 08:28:48;;;;;;;8.80;4.18;;;;;10.80;103878.00;;;;5016390;28;20299;-81
2022/01/13 08:31:16;;;;;;;9.15;4.70;;;;;10.80;103877.00;;;;5009284;28;20205;-81
2022/01/13 08:33:44;;;;;;;7.78;4.68;;;;;10.80;103884.00;;;;5012710;28;20201;-80
2022/01/13 08:36:11;;;;;;;5.55;3.35;;;;;10.80;103892.00;;;;5013109;28;20212;-80
2022/01/13 08:38:38;;;;;;;5.93;3.72;;;;;10.80;103891.00;;;;5022961;28;20200;-80
2022/01/13 08:41:05;;;;;;;9.18;4.53;;;;;10.80;103888.00;;;;5014914;28;20647;-80
2022/01/13 08:43:34;;;;;;;8.27;4.53;;;;;10.80;103890.00;;;;5014972;28;20228;-80
2022/01/13 08:46:05;;;;;;;7.15;4.20;;;;;10.80;103896.00;;;;5020941;28;20666;-81
2022/01/13 08:48:34;;;;;;;8.68;4.65;;;;;10.80;103902.00;;;;5013966;28;20196;-81
2022/01/13 08:51:02;;;;;;;8.90;5.05;;;;;10.80;103899.00;;;;5014306;28;20197;-82
2022/01/13 08:53:30;;;;;;;9.35;4.68;;;;;10.80;103902.00;;;;5009850;28;20212;-81
2022/01/13 08:55:58;;;;;;;8.65;4.65;;;;;10.80;103900.00;;;;5011379;28;20201;-82
2022/01/13 08:58:26;;;;;;;7.68;4.60;;;;;10.80;103894.00;;;;5019875;28;20204;-81
2022/01/13 09:00:55;;;;;;;9.00;5.28;;;;;10.80;103898.00;;;;5013320;28;20212;-81
2022/01/13 09:03:23;;;;;;;8.13;4.97;;;;;10.80;103903.00;;;;5015136;28;20220;-81
2022/01/13 09:05:51;;;;;;;9.35;4.82;;;;;10.80;103900.00;;;;5012736;28;20614;-81
2022/01/13 09:08:19;;;;;;;8.85;4.20;;;;;10.80;103903.00;;;;5022911;28;20213;-80
2022/01/13 09:10:46;;;;;;;9.00;4.57;;;;;10.80;103907.00;;;;5016574;28;20699;-81
2022/01/13 09:13:15;;;;;;;8.50;4.80;;;;;10.80;103911.00;;;;5009303;28;20200;-81
2022/01/13 09:15:45;;;;;;;7.63;4.05;;;;;10.80;103908.00;;;;5025511;28;20200;-81
2022/01/13 09:18:17;;;;;;;9.10;4.45;;;;;10.80;103907.00;;;;5019126;28;20647;-82
2022/01/13 09:20:47;;;;;;;8.82;4.75;;;;;10.80;103909.00;;;;5018726;28;20228;-82
2022/01/13 09:23:15;;;;;;;6.28;3.78;;;;;10.80;103904.00;;;;5011733;28;20282;-82
2022/01/13 09:25:43;;;;;;;10.63;5.35;;;;;10.90;103909.00;;;;5019968;28;20208;-81
2022/01/13 09:28:10;;;;;;;9.60;4.70;;;;;10.90;103902.00;;;;5015201;28;20676;-81
2022/01/13 09:30:39;;;;;;;8.52;5.00;;;;;10.90;103904.00;;;;5023971;28;20208;-82
2022/01/13 09:33:07;;;;;;;9.40;4.88;;;;;10.90;103897.00;;;;5015082;28;20667;-81
2022/01/13 09:35:35;;;;;;;10.35;5.20;;;;;10.90;103905.00;;;;5026279;28;20200;-80
2022/01/13 09:38:03;;;;;;;7.10;4.15;;;;;10.90;103903.00;;;;5016069;28;20211;-82
2022/01/13 09:40:32;;;;;;;8.18;4.75;;;;;10.90;103898.00;;;;5015773;28;20204;-81
2022/01/13 09:43:02;;;;;;;8.68;4.97;;;;;10.90;103903.00;;;;5011672;28;20216;-82
2022/01/13 09:45:31;;;;;;;9.75;5.63;;;;;10.90;103903.00;;;;5012530;28;21020;-81
2022/01/13 09:47:59;;;;;;;7.60;4.30;;;;;10.90;103911.00;;;;5017785;28;20549;-81
2022/01/13 09:50:26;;;;;;;9.27;5.20;;;;;10.90;103900.00;;;;5012302;28;20204;-82
2022/01/13 09:52:54;;;;;;;8.65;4.97;;;;;11.00;103905.00;;;;5012588;28;20199;-81
2022/01/13 09:55:21;;;;;;;10.18;5.75;;;;;11.00;103904.00;;;;5015012;28;20207;-82
2022/01/13 09:57:52;;;;;;;9.38;6.15;;;;;11.00;103903.00;;;;5027798;28;20204;-82
2022/01/13 10:00:22;;;;;;;10.40;5.13;;;;;11.00;103901.00;;;;5018429;28;20577;-82
2022/01/13 10:02:50;;;;;;;8.65;5.32;;;;;11.10;103901.00;;;;5016056;28;20201;-82
2022/01/13 10:05:18;;;;;;;7.68;4.80;;;;;11.10;103908.00;;;;5013149;28;20228;-81
2022/01/13 10:07:47;;;;;;;10.52;5.07;;;;;11.10;103900.00;;;;5017020;28;20204;-82
2022/01/13 10:10:16;;;;;;;11.65;6.35;;;;;11.20;103911.00;;;;5015279;28;20224;-82
2022/01/13 10:12:46;;;;;;;9.68;5.50;;;;;11.20;103908.00;;;;5011668;28;20586;-81
2022/01/13 10:18:03;;;;;;;11.45;5.88;;;;;11.30;103905.00;;;;5021013;28;20203;-82
2022/01/13 10:20:30;;;;;;;12.52;6.72;;;;;11.30;103904.00;;;;5019815;28;20240;-82
2022/01/13 10:23:07;;;;;;;9.30;5.40;;;;;11.30;103921.00;;;;5019649;28;20204;-82
2022/01/13 10:25:36;;;;;;;9.93;5.63;;;;;11.40;103905.00;;;;5011775;28;20212;-80
2022/01/13 10:28:15;;;;;;;8.82;5.60;;;;;11.30;103908.00;;;;5019159;28;20201;-81
2022/01/13 10:30:45;;;;;;;8.77;4.93;;;;;11.30;103905.00;;;;5025138;28;20215;-82
2022/01/13 10:33:17;;;;;;;9.48;5.45;;;;;11.30;103905.00;;;;5025470;28;20555;-80
2022/01/13 10:35:45;;;;;;;7.35;4.63;;;;;11.40;103912.00;;;;5011400;28;20968;-79
2022/01/13 10:38:16;;;;;;;11.07;5.30;;;;;11.30;103909.00;;;;5012679;28;20209;-80
2022/01/13 10:40:46;;;;;;;10.23;5.47;;;;;11.30;103908.00;;;;5015779;28;20192;-80
2022/01/13 10:43:15;;;;;;;8.30;5.82;;;;;11.30;103924.00;;;;5017882;28;20262;-81
2022/01/13 10:45:47;;;;;;;8.45;5.63;;;;;11.30;103916.00;;;;5013710;28;20232;-82
2022/01/13 10:48:18;;;;;;;7.85;4.78;;;;;11.30;103910.00;;;;5010810;28;20209;-80
2022/01/13 10:50:49;;;;;;;7.57;5.25;;;;;11.30;103905.00;;;;5009753;28;20224;-80
2022/01/13 10:53:19;;;;;;;11.93;5.65;;;;;11.40;103900.00;;;;5011305;28;20324;-80
2022/01/13 10:55:49;;;;;;;10.50;6.18;;;;;11.30;103898.00;;;;5018746;28;20231;-80
2022/01/13 10:58:19;;;;;;;10.82;5.80;;;;;11.40;103896.00;;;;5010838;28;20216;-80
2022/01/13 11:00:50;;;;;;;8.65;5.15;;;;;11.30;103892.00;;;;5020607;28;20212;-81
2022/01/13 11:03:19;;;;;;;11.02;5.75;;;;;11.30;103893.00;;;;5016597;28;20196;-80
2022/01/13 11:05:49;;;;;;;11.13;5.63;;;;;11.40;103898.00;;;;5011715;28;20224;-81
2022/01/13 11:08:26;;;;;;;8.38;5.03;;;;;11.30;103891.00;;;;5016865;28;20273;-81
2022/01/13 11:10:56;;;;;;;9.57;5.38;;;;;11.40;103896.00;;;;5019064;28;20700;-81
2022/01/13 11:13:26;;;;;;;11.15;6.75;;;;;11.40;103890.00;;;;5019190;28;20590;-80
2022/01/13 11:15:56;;;;;;;9.50;5.45;;;;;11.40;103888.00;;;;5009959;28;20196;-80
2022/01/13 11:18:25;;;;;;;10.02;5.43;;;;;11.40;103894.00;;;;5013068;28;20251;-81
2022/01/13 11:20:53;;;;;;;9.20;5.20;;;;;11.40;103889.00;;;;5019713;28;20200;-82
2022/01/13 11:23:21;;;;;;;9.07;5.22;;;;;11.40;103896.00;;;;5018541;28;20200;-82
2022/01/13 11:25:52;;;;;;;7.93;5.25;;;;;11.40;103886.00;;;;5009585;28;20251;-82
2022/01/13 11:28:20;;;;;;;10.68;5.97;;;;;11.50;103891.00;;;;5024422;28;20197;-82
2022/01/13 11:30:49;;;;;;;9.38;6.00;;;;;11.50;103889.00;;;;5017979;28;20204;-83
2022/01/13 11:33:20;;;;;;;11.48;5.95;;;;;11.50;103885.00;;;;5009488;28;20267;-82
2022/01/13 11:35:55;;;;;;;9.05;5.28;;;;;11.50;103883.00;;;;5009620;28;20220;-82
2022/01/13 11:38:23;;;;;;;8.60;4.82;;;;;11.50;103893.00;;;;5021022;28;20216;-82
2022/01/13 11:40:52;;;;;;;9.60;5.30;;;;;11.50;103887.00;;;;5010093;28;20200;-82
2022/01/13 11:43:38;;;;;;;12.68;6.72;;;;;11.40;103886.00;;;;5013322;28;20204;-82
2022/01/13 11:46:18;;;;;;;9.57;5.13;;;;;11.50;103884.00;;;;5021507;28;20631;-81
2022/01/13 11:49:08;;;;;;;13.07;6.03;;;;;11.40;103887.00;;;;5021302;28;20681;-81
2022/01/13 11:51:44;;;;;;;11.70;6.22;;;;;11.50;103872.00;;;;5018583;28;20204;-82
2022/01/13 11:54:12;;;;;;;11.18;5.93;;;;;11.60;103869.00;;;;5007766;28;20196;-82
2022/01/13 11:56:39;;;;;;;10.48;6.53;;;;;11.60;103861.00;;;;5028052;28;20193;-81
2022/01/13 11:59:10;;;;;;;10.27;6.13;;;;;11.60;103855.00;;;;5009014;28;20213;-82
2022/01/13 12:01:38;;;;;;;10.60;5.63;;;;;11.60;103861.00;;;;5013281;28;20204;-82
2022/01/13 12:04:08;;;;;;;9.40;5.45;;;;;11.60;103861.00;;;;5018796;28;20314;-82
2022/01/13 12:06:39;;;;;;;10.60;5.70;;;;;11.60;103854.00;;;;5010024;28;20197;-82
2022/01/13 12:09:07;;;;;;;12.10;5.60;;;;;11.60;103852.00;;;;5018801;28;20209;-81
2022/01/13 12:11:50;;;;;;;10.55;6.10;;;;;11.60;103847.00;;;;5012574;28;20216;-82
2022/01/13 12:14:39;;;;;;;10.98;5.95;;;;;11.50;103834.00;;;;5021519;28;20216;-82
2022/01/13 12:17:10;;;;;;;9.60;5.72;;;;;11.60;103840.00;;;;5026836;28;20548;-82
2022/01/13 12:19:42;;;;;;;8.65;5.85;;;;;11.60;103835.00;;;;5021736;28;20772;-81
2022/01/13 12:22:15;;;;;;;11.70;6.15;;;;;11.70;103823.00;;;;5021116;28;20220;-82
2022/01/13 12:24:54;;;;;;;11.05;5.80;;;;;11.60;103816.00;;;;5008413;28;20748;-82
2022/01/13 12:27:25;;;;;;;9.63;5.47;;;;;11.70;103823.00;;;;5008273;28;20201;-82
2022/01/13 12:30:07;;;;;;;12.10;6.22;;;;;11.60;103816.00;;;;5015737;28;20611;-83
2022/01/13 12:32:40;;;;;;;12.63;6.75;;;;;11.70;103819.00;;;;5008958;28;20212;-81